Time;durP1;ratioP1;P1;durP2;ratioP2;P2;SDS_P1;SDS_P2;PMS_P1;PMS_P2;Temp;Humidity;BMP_temperature;BMP_pressure;BME280_temperature;BME280_humidity;BME280_pressure;Samples;Min_cycle;Max_cycle;Signal;HPM_P1;HPM_P2
2023/08/21 00:01:17;;;;;;;232.90;112.33;;;;;;;;;;5071271;28;20424;-52
2023/08/21 00:03:43;;;;;;;234.07;111.47;;;;;;;;;;5071756;28;20408;-55
2023/08/21 00:06:09;;;;;;;227.30;102.20;;;;;;;;;;5071647;28;20416;-55
2023/08/21 00:08:35;;;;;;;236.33;113.73;;;;;;;;;;5071386;28;20523;-55
2023/08/21 00:11:01;;;;;;;231.30;110.03;;;;;;;;;;5071391;28;20411;-55
2023/08/21 00:13:26;;;;;;;235.00;113.17;;;;;;;;;;5071251;28;20439;-54
2023/08/21 00:15:54;;;;;;;235.57;114.70;;;;;;;;;;5071467;28;20445;-55
2023/08/21 00:18:20;;;;;;;237.17;115.93;;;;;;;;;;5069944;28;20420;-54
2023/08/21 00:20:46;;;;;;;234.83;114.23;;;;;;;;;;5071170;28;20428;-54
2023/08/21 00:23:12;;;;;;;236.33;113.63;;;;;;;;;;5071303;28;20431;-55
2023/08/21 00:25:38;;;;;;;238.00;120.97;;;;;;;;;;5071235;28;20412;-54
2023/08/21 00:28:04;;;;;;;233.63;110.33;;;;;;;;;;5071221;28;20466;-55
2023/08/21 00:30:30;;;;;;;235.83;114.67;;;;;;;;;;5071180;28;20781;-55
2023/08/21 00:32:56;;;;;;;233.30;109.07;;;;;;;;;;5071191;28;20428;-55
2023/08/21 00:35:22;;;;;;;229.77;104.43;;;;;;;;;;5071300;28;20419;-54
2023/08/21 00:37:48;;;;;;;236.63;115.03;;;;;;;;;;5074803;28;20423;-53
2023/08/21 00:40:14;;;;;;;233.00;108.77;;;;;;;;;;5074973;28;20473;-55
2023/08/21 00:42:40;;;;;;;233.03;111.17;;;;;;;;;;5074926;28;20439;-55
2023/08/21 00:45:08;;;;;;;231.63;108.73;;;;;;;;;;5077075;28;20496;-54
2023/08/21 00:47:34;;;;;;;232.77;110.83;;;;;;;;;;5075538;28;21033;-54
2023/08/21 00:50:00;;;;;;;234.40;115.00;;;;;;;;;;5073240;28;20416;-55
2023/08/21 00:52:26;;;;;;;238.47;119.57;;;;;;;;;;5074843;28;20439;-55
2023/08/21 00:54:52;;;;;;;235.73;115.80;;;;;;;;;;5074902;28;20939;-55
2023/08/21 00:57:18;;;;;;;232.47;112.10;;;;;;;;;;5074835;28;20504;-54
2023/08/21 00:59:45;;;;;;;237.50;114.07;;;;;;;;;;5074658;28;20419;-55
2023/08/21 01:02:11;;;;;;;237.10;118.70;;;;;;;;;;5074172;28;20442;-55
2023/08/21 01:04:37;;;;;;;239.57;117.63;;;;;;;;;;5073707;28;20412;-55
2023/08/21 01:07:09;;;;;;;243.67;122.50;;;;;;;;;;5074133;28;20821;-55
2023/08/21 01:09:41;;;;;;;235.67;114.53;;;;;;;;;;5073995;28;20412;-55
2023/08/21 01:12:13;;;;;;;237.60;117.30;;;;;;;;;;5074372;28;20488;-51
2023/08/21 01:14:39;;;;;;;238.80;120.97;;;;;;;;;;5074889;28;20433;-51
2023/08/21 01:17:05;;;;;;;235.53;115.63;;;;;;;;;;5074289;28;20481;-52
2023/08/21 01:19:31;;;;;;;234.07;111.10;;;;;;;;;;5074380;28;20427;-53
2023/08/21 01:21:58;;;;;;;238.00;118.37;;;;;;;;;;5074291;28;20433;-55
2023/08/21 01:24:24;;;;;;;237.73;117.77;;;;;;;;;;5074281;28;20930;-55
2023/08/21 01:26:50;;;;;;;236.60;116.60;;;;;;;;;;5074158;28;20401;-54
2023/08/21 01:29:16;;;;;;;241.20;118.60;;;;;;;;;;5074184;28;20908;-55
2023/08/21 01:31:44;;;;;;;235.20;109.87;;;;;;;;;;5073536;28;20425;-55
2023/08/21 01:34:11;;;;;;;237.50;117.30;;;;;;;;;;5074189;28;20411;-55
2023/08/21 01:36:38;;;;;;;237.57;112.20;;;;;;;;;;5074155;28;20408;-54
2023/08/21 01:39:04;;;;;;;238.70;117.37;;;;;;;;;;5074111;28;20474;-55
2023/08/21 01:41:30;;;;;;;243.87;120.77;;;;;;;;;;5073688;28;20407;-55
2023/08/21 01:43:56;;;;;;;248.27;129.83;;;;;;;;;;5073674;28;20938;-55
2023/08/21 01:46:22;;;;;;;246.03;123.90;;;;;;;;;;5077375;28;20905;-54
2023/08/21 01:48:48;;;;;;;249.40;128.80;;;;;;;;;;5073179;28;20821;-54
2023/08/21 01:51:14;;;;;;;255.30;130.67;;;;;;;;;;5073458;28;20431;-54
2023/08/21 01:53:40;;;;;;;253.15;130.95;;;;;;;;;;5073730;28;20418;-54
2023/08/21 01:56:06;;;;;;;249.53;123.93;;;;;;;;;;5073729;28;20177;-54
2023/08/21 01:58:31;;;;;;;249.33;120.97;;;;;;;;;;5073708;28;20408;-54
2023/08/21 02:00:57;;;;;;;250.83;125.17;;;;;;;;;;5073607;28;20411;-55
2023/08/21 02:03:25;;;;;;;250.07;123.87;;;;;;;;;;5073507;28;20431;-54
2023/08/21 02:05:51;;;;;;;250.32;124.00;;;;;;;;;;5074292;28;20416;-51
2023/08/21 02:08:18;;;;;;;252.50;128.43;;;;;;;;;;5073661;28;20353;-52
2023/08/21 02:10:50;;;;;;;251.53;124.67;;;;;;;;;;5072361;28;20395;-52
2023/08/21 02:13:16;;;;;;;249.97;123.20;;;;;;;;;;5073753;28;20420;-52
2023/08/21 02:15:42;;;;;;;252.47;123.27;;;;;;;;;;5073478;28;20401;-53
2023/08/21 02:18:08;;;;;;;260.37;131.57;;;;;;;;;;5070751;28;20427;-53
2023/08/21 02:20:34;;;;;;;250.70;125.47;;;;;;;;;;5071740;28;20464;-51
2023/08/21 02:23:00;;;;;;;251.17;122.63;;;;;;;;;;5073402;28;20530;-51
2023/08/21 02:25:25;;;;;;;253.37;127.03;;;;;;;;;;5074600;28;20418;-52
2023/08/21 02:27:51;;;;;;;255.00;129.07;;;;;;;;;;5073194;28;20517;-52
2023/08/21 02:30:17;;;;;;;252.60;125.03;;;;;;;;;;5072720;28;20415;-51
2023/08/21 02:32:44;;;;;;;252.83;124.83;;;;;;;;;;5072966;28;20424;-52
2023/08/21 02:35:10;;;;;;;253.93;128.95;;;;;;;;;;5073076;28;20529;-51
2023/08/21 02:37:38;;;;;;;254.67;129.20;;;;;;;;;;5072952;28;20169;-51
2023/08/21 02:40:06;;;;;;;259.73;135.43;;;;;;;;;;5072698;28;20599;-51
2023/08/21 02:42:32;;;;;;;255.60;128.53;;;;;;;;;;5072847;28;20439;-51
2023/08/21 02:44:58;;;;;;;252.67;127.03;;;;;;;;;;5072722;28;20424;-53
2023/08/21 02:47:24;;;;;;;247.23;121.80;;;;;;;;;;5072747;28;20458;-52
2023/08/21 02:49:50;;;;;;;257.27;137.57;;;;;;;;;;5072437;28;20903;-51
2023/08/21 02:52:18;;;;;;;251.93;126.10;;;;;;;;;;5072547;28;20466;-51
2023/08/21 02:54:44;;;;;;;250.48;125.70;;;;;;;;;;5072685;28;20400;-52
2023/08/21 02:57:10;;;;;;;244.77;118.00;;;;;;;;;;5071437;28;20176;-51
2023/08/21 02:59:36;;;;;;;253.20;133.40;;;;;;;;;;5071382;28;20824;-56
2023/08/21 03:02:02;;;;;;;251.63;125.37;;;;;;;;;;5072741;28;20439;-52
2023/08/21 03:04:28;;;;;;;249.20;124.27;;;;;;;;;;5072318;28;20410;-54
2023/08/21 03:06:54;;;;;;;252.13;130.23;;;;;;;;;;5072320;28;20442;-51
2023/08/21 03:09:19;;;;;;;247.70;126.13;;;;;;;;;;5072321;28;20415;-51
2023/08/21 03:11:45;;;;;;;251.07;133.40;;;;;;;;;;5072362;28;20509;-51
2023/08/21 03:14:11;;;;;;;247.90;129.27;;;;;;;;;;5077409;28;20404;-51
2023/08/21 03:16:37;;;;;;;248.43;126.93;;;;;;;;;;5072361;28;20403;-52
2023/08/21 03:19:03;;;;;;;242.37;121.77;;;;;;;;;;5072091;28;20984;-51
2023/08/21 03:21:29;;;;;;;243.23;119.10;;;;;;;;;;5071796;28;20975;-52
2023/08/21 03:23:56;;;;;;;241.37;118.43;;;;;;;;;;5072163;28;20907;-51
2023/08/21 03:26:22;;;;;;;244.47;125.33;;;;;;;;;;5072003;28;20414;-53
2023/08/21 03:28:48;;;;;;;250.23;131.93;;;;;;;;;;5071900;28;20950;-52
2023/08/21 03:31:15;;;;;;;245.20;128.37;;;;;;;;;;5071734;28;20431;-52
2023/08/21 03:33:41;;;;;;;248.90;129.67;;;;;;;;;;5070454;28;20440;-51
2023/08/21 03:36:07;;;;;;;250.63;135.83;;;;;;;;;;5071427;28;20407;-53
2023/08/21 03:38:33;;;;;;;243.30;121.87;;;;;;;;;;5071022;28;20414;-54
2023/08/21 03:41:00;;;;;;;244.37;125.43;;;;;;;;;;5071897;28;20399;-53
2023/08/21 03:43:26;;;;;;;244.43;131.00;;;;;;;;;;5071776;28;20423;-53
2023/08/21 03:45:52;;;;;;;244.57;125.83;;;;;;;;;;5071879;28;20238;-52
2023/08/21 03:48:18;;;;;;;249.63;133.90;;;;;;;;;;5071896;28;20459;-53
2023/08/21 03:50:44;;;;;;;251.30;136.53;;;;;;;;;;5071598;28;20453;-53
2023/08/21 03:53:09;;;;;;;245.63;129.80;;;;;;;;;;5071976;28;20506;-51
2023/08/21 03:55:35;;;;;;;249.60;137.20;;;;;;;;;;5071900;28;20423;-51
2023/08/21 03:58:01;;;;;;;257.57;147.70;;;;;;;;;;5071841;28;20407;-51
2023/08/21 04:00:27;;;;;;;253.63;143.47;;;;;;;;;;5071570;28;20410;-52
2023/08/21 04:02:53;;;;;;;258.27;153.57;;;;;;;;;;5071761;28;20919;-52
2023/08/21 04:05:19;;;;;;;256.80;147.73;;;;;;;;;;5071752;28;20407;-53
2023/08/21 04:07:45;;;;;;;247.27;130.27;;;;;;;;;;5071690;28;20462;-53
2023/08/21 04:10:11;;;;;;;255.30;142.40;;;;;;;;;;5071625;28;20394;-51
2023/08/21 04:12:37;;;;;;;247.83;130.17;;;;;;;;;;5071187;28;20415;-51
2023/08/21 04:15:03;;;;;;;262.67;165.30;;;;;;;;;;5071639;28;20494;-51
2023/08/21 04:17:29;;;;;;;256.37;145.27;;;;;;;;;;5071652;28;20399;-51
2023/08/21 04:19:55;;;;;;;251.43;131.97;;;;;;;;;;5071471;28;20765;-51
2023/08/21 04:22:21;;;;;;;245.37;126.37;;;;;;;;;;5071596;28;20478;-53
2023/08/21 04:24:47;;;;;;;258.43;148.87;;;;;;;;;;5071544;28;20824;-52
2023/08/21 04:27:13;;;;;;;259.73;150.63;;;;;;;;;;5071504;28;20489;-53
2023/08/21 04:29:40;;;;;;;256.93;147.70;;;;;;;;;;5071187;28;20474;-55
2023/08/21 04:32:06;;;;;;;253.13;145.47;;;;;;;;;;5071483;28;20415;-53
2023/08/21 04:34:35;;;;;;;259.37;149.80;;;;;;;;;;5071639;28;20410;-51
2023/08/21 04:37:01;;;;;;;256.97;144.93;;;;;;;;;;5071469;28;20407;-51
2023/08/21 04:39:27;;;;;;;262.37;152.27;;;;;;;;;;5071506;28;20798;-51
2023/08/21 04:41:54;;;;;;;255.60;139.10;;;;;;;;;;5071119;28;20427;-52
2023/08/21 04:44:20;;;;;;;256.17;147.23;;;;;;;;;;5071320;28;20435;-51
2023/08/21 04:46:50;;;;;;;256.97;142.03;;;;;;;;;;5071285;28;20431;-51
2023/08/21 04:49:16;;;;;;;265.47;156.13;;;;;;;;;;5071613;28;20500;-53
2023/08/21 04:51:42;;;;;;;268.40;162.67;;;;;;;;;;5079635;28;21017;-52
2023/08/21 04:54:08;;;;;;;264.07;158.73;;;;;;;;;;5091580;28;20497;-51
2023/08/21 04:56:34;;;;;;;260.70;149.77;;;;;;;;;;5091369;28;20771;-53
2023/08/21 04:59:00;;;;;;;261.77;156.33;;;;;;;;;;5091662;28;20771;-53
2023/08/21 05:01:26;;;;;;;259.93;149.30;;;;;;;;;;5091360;28;20897;-52
2023/08/21 05:03:54;;;;;;;266.90;160.97;;;;;;;;;;5091436;28;20488;-52
2023/08/21 05:06:20;;;;;;;263.87;157.57;;;;;;;;;;5090916;28;20454;-52
2023/08/21 05:08:46;;;;;;;265.57;154.93;;;;;;;;;;5091123;28;20980;-51
2023/08/21 05:11:11;;;;;;;263.90;151.70;;;;;;;;;;5077840;28;20446;-51
2023/08/21 05:13:37;;;;;;;263.97;151.60;;;;;;;;;;5062236;28;20903;-51
2023/08/21 05:16:03;;;;;;;262.40;156.80;;;;;;;;;;5071016;28;20395;-51
2023/08/21 05:18:29;;;;;;;274.17;174.17;;;;;;;;;;5071099;28;20411;-52
2023/08/21 05:20:56;;;;;;;263.47;157.73;;;;;;;;;;5070798;28;20431;-52
2023/08/21 05:23:22;;;;;;;271.07;162.27;;;;;;;;;;5072049;28;20421;-52
2023/08/21 05:25:51;;;;;;;270.23;163.63;;;;;;;;;;5074279;28;20402;-53
2023/08/21 05:28:17;;;;;;;264.17;156.00;;;;;;;;;;5074392;28;20454;-53
2023/08/21 05:30:43;;;;;;;271.30;167.97;;;;;;;;;;5074301;28;20402;-51
2023/08/21 05:33:09;;;;;;;265.53;156.57;;;;;;;;;;5074188;28;20516;-53
2023/08/21 05:35:35;;;;;;;271.53;168.10;;;;;;;;;;5074291;28;20434;-54
2023/08/21 05:38:02;;;;;;;270.17;170.10;;;;;;;;;;5074411;28;20458;-52
2023/08/21 05:40:28;;;;;;;275.07;176.20;;;;;;;;;;5073892;28;20404;-51
2023/08/21 05:42:54;;;;;;;270.53;165.63;;;;;;;;;;5074207;28;20430;-51
2023/08/21 05:45:20;;;;;;;272.67;169.63;;;;;;;;;;5074109;28;20413;-51
2023/08/21 05:47:46;;;;;;;286.47;199.10;;;;;;;;;;5073940;28;20467;-54
2023/08/21 05:50:12;;;;;;;278.97;182.50;;;;;;;;;;5073739;28;20462;-51
2023/08/21 05:52:38;;;;;;;272.87;175.23;;;;;;;;;;5090493;28;20423;-51
2023/08/21 05:55:05;;;;;;;277.03;179.57;;;;;;;;;;5094064;28;20403;-51
2023/08/21 05:57:31;;;;;;;270.33;163.07;;;;;;;;;;5080722;28;20932;-51
2023/08/21 05:59:57;;;;;;;277.53;184.17;;;;;;;;;;5080638;28;20412;-54
2023/08/21 06:02:23;;;;;;;269.00;171.43;;;;;;;;;;5073597;28;20443;-51
2023/08/21 06:04:49;;;;;;;270.50;169.87;;;;;;;;;;5073610;28;20409;-52
2023/08/21 06:07:15;;;;;;;276.93;179.37;;;;;;;;;;5070250;28;20541;-52
2023/08/21 06:09:41;;;;;;;275.57;173.57;;;;;;;;;;5073727;28;20429;-52
2023/08/21 06:12:07;;;;;;;275.23;180.00;;;;;;;;;;5073358;28;20932;-51
2023/08/21 06:14:33;;;;;;;272.40;169.60;;;;;;;;;;5073379;28;20423;-52
2023/08/21 06:17:01;;;;;;;267.93;162.13;;;;;;;;;;5073392;28;20402;-51
2023/08/21 06:19:27;;;;;;;275.57;175.67;;;;;;;;;;5073343;28;20407;-52
2023/08/21 06:21:53;;;;;;;272.20;169.57;;;;;;;;;;5071690;28;20948;-53
2023/08/21 06:24:19;;;;;;;271.43;170.80;;;;;;;;;;5073110;28;20419;-52
2023/08/21 06:26:45;;;;;;;272.87;165.47;;;;;;;;;;5073243;28;20419;-51
2023/08/21 06:29:11;;;;;;;276.00;180.10;;;;;;;;;;5073050;28;20452;-51
2023/08/21 06:31:37;;;;;;;278.77;184.03;;;;;;;;;;5072735;28;20426;-50
2023/08/21 06:34:03;;;;;;;277.90;178.17;;;;;;;;;;5072883;28;20560;-53
2023/08/21 06:36:29;;;;;;;272.20;174.83;;;;;;;;;;5072951;28;20411;-51
2023/08/21 06:38:55;;;;;;;277.57;183.00;;;;;;;;;;5072912;28;20433;-54
2023/08/21 06:41:21;;;;;;;275.23;174.87;;;;;;;;;;5073033;28;20406;-51
2023/08/21 06:43:47;;;;;;;302.30;201.63;;;;;;;;;;5072937;28;20914;-51
2023/08/21 06:46:13;;;;;;;282.73;187.90;;;;;;;;;;5073059;28;20511;-53
2023/08/21 06:48:43;;;;;;;288.83;200.37;;;;;;;;;;5072722;28;20489;-52
2023/08/21 06:51:10;;;;;;;277.37;177.50;;;;;;;;;;5072241;28;20515;-54
2023/08/21 06:53:36;;;;;;;280.40;181.33;;;;;;;;;;5072849;28;20895;-55
2023/08/21 06:56:02;;;;;;;278.87;184.90;;;;;;;;;;5072560;28;20920;-55
2023/08/21 06:58:28;;;;;;;282.63;184.50;;;;;;;;;;5072565;28;20912;-54
2023/08/21 07:00:55;;;;;;;277.30;183.67;;;;;;;;;;5072794;28;20842;-52
2023/08/21 07:03:21;;;;;;;287.87;198.03;;;;;;;;;;5072440;28;20437;-52
2023/08/21 07:05:54;;;;;;;289.93;198.47;;;;;;;;;;5072429;28;20487;-51
2023/08/21 07:08:20;;;;;;;284.87;192.13;;;;;;;;;;5072178;28;20460;-54
2023/08/21 07:10:46;;;;;;;283.77;191.83;;;;;;;;;;5072348;28;20819;-54
2023/08/21 07:13:11;;;;;;;295.07;225.00;;;;;;;;;;5071182;28;20482;-51
2023/08/21 07:15:37;;;;;;;284.43;190.57;;;;;;;;;;5072263;28;20943;-53
2023/08/21 07:18:04;;;;;;;299.23;224.53;;;;;;;;;;5072286;28;20783;-53
2023/08/21 07:20:29;;;;;;;290.13;206.67;;;;;;;;;;5070624;28;20495;-53
2023/08/21 07:22:55;;;;;;;288.37;203.13;;;;;;;;;;5072291;28;20452;-51
2023/08/21 07:25:21;;;;;;;293.43;217.23;;;;;;;;;;5072045;28;20423;-51
2023/08/21 07:27:47;;;;;;;297.30;215.53;;;;;;;;;;5072137;28;20502;-52
2023/08/21 07:30:13;;;;;;;422.30;303.27;;;;;;;;;;5071865;28;20410;-51
2023/08/21 07:32:39;;;;;;;299.80;221.30;;;;;;;;;;5063689;28;20430;-53
2023/08/21 07:35:06;;;;;;;305.33;225.23;;;;;;;;;;5071825;28;20407;-53
2023/08/21 07:37:31;;;;;;;292.37;202.37;;;;;;;;;;5071715;28;20491;-53
2023/08/21 07:39:57;;;;;;;296.23;208.57;;;;;;;;;;5071886;28;20440;-51
2023/08/21 07:42:24;;;;;;;297.00;218.57;;;;;;;;;;5071700;28;20463;-53
2023/08/21 07:44:49;;;;;;;293.63;213.70;;;;;;;;;;5071802;28;20417;-52
2023/08/21 07:47:16;;;;;;;291.27;209.37;;;;;;;;;;5071216;28;20793;-50
2023/08/21 07:49:42;;;;;;;295.53;212.63;;;;;;;;;;5070411;28;20411;-51
2023/08/21 07:52:08;;;;;;;294.30;207.90;;;;;;;;;;5075475;28;20995;-51
2023/08/21 07:54:34;;;;;;;299.63;215.53;;;;;;;;;;5071638;28;20943;-51
2023/08/21 07:57:00;;;;;;;302.97;220.73;;;;;;;;;;5071686;28;20405;-53
2023/08/21 07:59:26;;;;;;;304.43;237.20;;;;;;;;;;5071733;28;20904;-51
2023/08/21 08:01:52;;;;;;;301.43;229.57;;;;;;;;;;5071396;28;21004;-52
2023/08/21 08:04:17;;;;;;;305.37;231.57;;;;;;;;;;5071452;28;20427;-53
2023/08/21 08:06:44;;;;;;;298.57;218.63;;;;;;;;;;5071552;28;20409;-53
2023/08/21 08:09:10;;;;;;;303.67;232.40;;;;;;;;;;5071458;28;20471;-53
2023/08/21 08:11:36;;;;;;;297.73;218.10;;;;;;;;;;5071267;28;20424;-51
2023/08/21 08:14:02;;;;;;;304.40;232.77;;;;;;;;;;5071607;28;20427;-52
2023/08/21 08:16:28;;;;;;;313.43;245.80;;;;;;;;;;5070151;28;20791;-54
2023/08/21 08:18:54;;;;;;;324.77;262.90;;;;;;;;;;5071380;28;20416;-55
2023/08/21 08:21:20;;;;;;;328.77;276.00;;;;;;;;;;5071068;28;20934;-55
2023/08/21 08:23:46;;;;;;;330.03;282.27;;;;;;;;;;5070223;28;20884;-55
2023/08/21 08:26:12;;;;;;;324.10;266.90;;;;;;;;;;5071685;28;20937;-55
2023/08/21 08:28:38;;;;;;;330.87;283.13;;;;;;;;;;5071256;28;20819;-55
2023/08/21 08:31:04;;;;;;;330.67;283.10;;;;;;;;;;5071210;28;20400;-54
2023/08/21 08:33:30;;;;;;;352.60;314.00;;;;;;;;;;5070973;28;20482;-53
2023/08/21 08:35:56;;;;;;;339.40;301.53;;;;;;;;;;5071302;28;20400;-55
2023/08/21 08:38:23;;;;;;;353.00;312.10;;;;;;;;;;5068512;28;20419;-53
2023/08/21 08:40:51;;;;;;;368.10;328.77;;;;;;;;;;5068552;28;20462;-53
2023/08/21 08:43:18;;;;;;;364.30;325.60;;;;;;;;;;5069123;28;20427;-54
2023/08/21 08:45:45;;;;;;;361.53;322.93;;;;;;;;;;5069130;28;20406;-52
2023/08/21 08:48:13;;;;;;;334.97;296.70;;;;;;;;;;5070751;28;20456;-53
2023/08/21 08:50:39;;;;;;;365.27;326.40;;;;;;;;;;5069707;28;20428;-52
2023/08/21 08:53:08;;;;;;;350.17;312.37;;;;;;;;;;5071439;28;20546;-55
2023/08/21 08:55:34;;;;;;;355.97;318.07;;;;;;;;;;5070879;28;20484;-53
2023/08/21 08:58:00;;;;;;;356.57;318.97;;;;;;;;;;5073247;28;20993;-51
2023/08/21 09:00:26;;;;;;;382.43;342.37;;;;;;;;;;5074569;28;20916;-51
2023/08/21 09:02:52;;;;;;;366.77;328.10;;;;;;;;;;5075030;28;20467;-53
2023/08/21 09:05:18;;;;;;;365.83;327.67;;;;;;;;;;5074671;28;21014;-51
2023/08/21 09:07:44;;;;;;;351.83;314.17;;;;;;;;;;5074701;28;20538;-55
2023/08/21 09:10:15;;;;;;;349.27;311.87;;;;;;;;;;5075290;28;20418;-55
2023/08/21 09:12:41;;;;;;;423.40;380.00;;;;;;;;;;5074480;28;20412;-55
2023/08/21 09:15:10;;;;;;;365.13;326.77;;;;;;;;;;5073690;28;20972;-55
2023/08/21 09:17:36;;;;;;;351.50;313.50;;;;;;;;;;5074482;28;20469;-55
2023/08/21 09:20:08;;;;;;;345.63;308.40;;;;;;;;;;5074478;28;20778;-55
2023/08/21 09:22:34;;;;;;;349.67;312.20;;;;;;;;;;5074611;28;20420;-54
2023/08/21 09:25:06;;;;;;;348.83;311.40;;;;;;;;;;5074618;28;20408;-55
2023/08/21 09:27:33;;;;;;;347.27;310.57;;;;;;;;;;5074416;28;20513;-55
2023/08/21 09:29:59;;;;;;;343.17;307.07;;;;;;;;;;5074348;28;20400;-55
2023/08/21 09:32:25;;;;;;;333.07;296.97;;;;;;;;;;5074446;28;20841;-55
2023/08/21 09:34:51;;;;;;;354.83;317.83;;;;;;;;;;5074510;28;20914;-55
2023/08/21 09:37:17;;;;;;;348.17;311.40;;;;;;;;;;5074425;28;20984;-55
2023/08/21 09:39:44;;;;;;;319.50;276.17;;;;;;;;;;5074165;28;20400;-55
2023/08/21 09:42:11;;;;;;;328.07;285.40;;;;;;;;;;5071891;28;20801;-56
2023/08/21 09:44:41;;;;;;;327.23;291.83;;;;;;;;;;5063154;28;20404;-55
2023/08/21 09:47:13;;;;;;;329.93;294.10;;;;;;;;;;5074128;28;20559;-55
2023/08/21 09:49:39;;;;;;;319.77;280.20;;;;;;;;;;5073956;28;20404;-55
2023/08/21 09:52:12;;;;;;;323.47;287.53;;;;;;;;;;5085640;28;20444;-55
2023/08/21 09:54:39;;;;;;;330.17;294.27;;;;;;;;;;5079949;28;20401;-55
2023/08/21 09:57:05;;;;;;;318.83;283.73;;;;;;;;;;5073976;28;20545;-54
2023/08/21 09:59:33;;;;;;;325.30;290.67;;;;;;;;;;5073930;28;20432;-55
2023/08/21 10:02:04;;;;;;;325.97;290.50;;;;;;;;;;5073591;28;20506;-54
2023/08/21 10:04:32;;;;;;;323.43;288.07;;;;;;;;;;5073643;28;20408;-55
2023/08/21 10:06:58;;;;;;;314.57;279.73;;;;;;;;;;5074179;28;20413;-55
2023/08/21 10:09:25;;;;;;;313.40;275.60;;;;;;;;;;5073040;28;20416;-55
2023/08/21 10:11:52;;;;;;;319.63;284.67;;;;;;;;;;5073327;28;20416;-55
2023/08/21 10:14:18;;;;;;;312.77;278.30;;;;;;;;;;5073505;28;20405;-55
2023/08/21 10:16:45;;;;;;;305.87;267.77;;;;;;;;;;5073578;28;20412;-54
2023/08/21 10:19:14;;;;;;;321.87;286.70;;;;;;;;;;5073271;28;20401;-55
2023/08/21 10:21:41;;;;;;;300.03;259.00;;;;;;;;;;5073346;28;20421;-55
2023/08/21 10:24:07;;;;;;;296.93;253.30;;;;;;;;;;5073437;28;20401;-54
2023/08/21 10:26:38;;;;;;;302.70;261.40;;;;;;;;;;5073375;28;20396;-55
2023/08/21 10:29:07;;;;;;;304.87;270.23;;;;;;;;;;5073451;28;20459;-55
2023/08/21 10:31:32;;;;;;;302.70;262.67;;;;;;;;;;5072907;28;20811;-55
2023/08/21 10:33:59;;;;;;;305.23;266.17;;;;;;;;;;5073148;28;20397;-55
2023/08/21 10:36:39;;;;;;;300.40;255.80;;;;;;;;;;5073240;28;20397;-55
2023/08/21 10:39:04;;;;;;;295.57;252.33;;;;;;;;;;5073136;28;20896;-54
2023/08/21 10:41:30;;;;;;;284.87;228.77;;;;;;;;;;5072819;28;20427;-54
2023/08/21 10:43:56;;;;;;;284.60;237.33;;;;;;;;;;5072686;28;20401;-54
2023/08/21 10:46:22;;;;;;;284.27;240.87;;;;;;;;;;5073064;28;20411;-55
2023/08/21 10:48:48;;;;;;;271.67;200.93;;;;;;;;;;5072983;28;20994;-55
2023/08/21 10:51:17;;;;;;;277.60;210.80;;;;;;;;;;5077181;28;20930;-55
2023/08/21 10:53:43;;;;;;;274.00;207.93;;;;;;;;;;5093184;28;20448;-55
2023/08/21 10:56:09;;;;;;;267.63;195.87;;;;;;;;;;5092998;28;20882;-55
2023/08/21 10:58:38;;;;;;;271.80;206.07;;;;;;;;;;5093106;28;20408;-55
2023/08/21 11:01:04;;;;;;;271.27;209.67;;;;;;;;;;5092681;28;21005;-55
2023/08/21 11:03:30;;;;;;;274.40;210.60;;;;;;;;;;5092689;28;20502;-55
2023/08/21 11:06:03;;;;;;;267.90;190.90;;;;;;;;;;5092970;28;20399;-55
2023/08/21 11:08:29;;;;;;;268.33;197.00;;;;;;;;;;5092736;28;20474;-55
2023/08/21 11:10:55;;;;;;;263.63;180.53;;;;;;;;;;5092568;28;20724;-55
2023/08/21 11:13:23;;;;;;;269.63;191.83;;;;;;;;;;5092640;28;20420;-55
2023/08/21 11:15:49;;;;;;;267.07;196.73;;;;;;;;;;5092678;28;20400;-55
2023/08/21 11:18:15;;;;;;;269.13;196.83;;;;;;;;;;5092658;28;20403;-54
2023/08/21 11:20:41;;;;;;;271.50;200.10;;;;;;;;;;5091558;28;20903;-55
2023/08/21 11:23:07;;;;;;;269.10;198.17;;;;;;;;;;5093125;28;20919;-52
2023/08/21 11:25:34;;;;;;;274.77;202.30;;;;;;;;;;5090013;28;20911;-52
2023/08/21 11:28:04;;;;;;;274.00;202.00;;;;;;;;;;5072356;28;20459;-53
2023/08/21 11:30:32;;;;;;;272.40;200.83;;;;;;;;;;5071907;28;20915;-51
2023/08/21 11:33:05;;;;;;;273.93;210.43;;;;;;;;;;5070862;28;20515;-51
2023/08/21 11:35:31;;;;;;;277.27;202.33;;;;;;;;;;5071950;28;20412;-53
2023/08/21 11:37:57;;;;;;;285.30;227.20;;;;;;;;;;5072366;28;20412;-54
2023/08/21 11:40:23;;;;;;;280.67;216.23;;;;;;;;;;5071796;28;20503;-54
2023/08/21 11:42:53;;;;;;;331.83;273.60;;;;;;;;;;5071741;28;20507;-55
2023/08/21 11:45:22;;;;;;;397.13;306.33;;;;;;;;;;5072259;28;20404;-54
2023/08/21 11:47:48;;;;;;;379.00;304.40;;;;;;;;;;5071807;28;20795;-55
2023/08/21 11:50:18;;;;;;;355.33;271.53;;;;;;;;;;5071382;28;20419;-55
2023/08/21 11:52:44;;;;;;;339.70;260.77;;;;;;;;;;5088879;28;20915;-55
2023/08/21 11:55:13;;;;;;;330.83;254.27;;;;;;;;;;5091968;28;20437;-55
2023/08/21 11:57:48;;;;;;;318.53;245.17;;;;;;;;;;5091972;28;20523;-55
2023/08/21 12:00:17;;;;;;;311.13;231.03;;;;;;;;;;5091745;28;20926;-55
2023/08/21 12:02:43;;;;;;;315.10;246.63;;;;;;;;;;5091610;28;20419;-55
2023/08/21 12:05:15;;;;;;;300.37;223.33;;;;;;;;;;5091848;28;20411;-55
2023/08/21 12:07:41;;;;;;;299.33;225.60;;;;;;;;;;5091899;28;20911;-55
2023/08/21 12:10:07;;;;;;;298.57;232.93;;;;;;;;;;5091625;28;20399;-55
2023/08/21 12:12:33;;;;;;;294.07;229.33;;;;;;;;;;5091716;28;20419;-55
2023/08/21 12:14:59;;;;;;;292.60;245.93;;;;;;;;;;5091672;28;20535;-55
2023/08/21 12:17:25;;;;;;;263.07;190.07;;;;;;;;;;5091659;28;20426;-55
2023/08/21 12:19:51;;;;;;;258.77;191.33;;;;;;;;;;5091636;28;20437;-55
2023/08/21 12:22:17;;;;;;;255.77;185.97;;;;;;;;;;5091729;28;20423;-54
2023/08/21 12:24:44;;;;;;;255.37;190.43;;;;;;;;;;5091711;28;20815;-55
2023/08/21 12:27:10;;;;;;;254.07;186.43;;;;;;;;;;5091725;28;20793;-55
2023/08/21 12:29:36;;;;;;;262.83;208.83;;;;;;;;;;5091714;28;20490;-55
2023/08/21 12:32:05;;;;;;;257.83;201.23;;;;;;;;;;5092007;28;20470;-54
2023/08/21 12:34:31;;;;;;;253.23;189.93;;;;;;;;;;5095761;28;20406;-55
2023/08/21 12:36:57;;;;;;;248.77;182.73;;;;;;;;;;5095782;28;20404;-55
2023/08/21 12:39:23;;;;;;;244.73;173.67;;;;;;;;;;5095688;28;20407;-55
2023/08/21 12:41:49;;;;;;;248.80;179.77;;;;;;;;;;5095477;28;20430;-55
2023/08/21 12:44:15;;;;;;;249.23;185.13;;;;;;;;;;5095596;28;20411;-55
2023/08/21 12:46:42;;;;;;;245.87;172.93;;;;;;;;;;5095510;28;20395;-55
2023/08/21 12:49:08;;;;;;;242.50;169.40;;;;;;;;;;5095538;28;20863;-54
2023/08/21 12:51:34;;;;;;;245.40;178.37;;;;;;;;;;5087392;28;20907;-55
2023/08/21 12:54:01;;;;;;;239.93;165.20;;;;;;;;;;5075262;28;20396;-55
2023/08/21 12:56:27;;;;;;;258.20;198.07;;;;;;;;;;5075229;28;20405;-55
2023/08/21 12:58:53;;;;;;;261.03;191.23;;;;;;;;;;5062200;28;20431;-55
2023/08/21 13:01:19;;;;;;;253.57;182.47;;;;;;;;;;5070193;28;20428;-55
2023/08/21 13:03:46;;;;;;;261.37;205.77;;;;;;;;;;5074888;28;20466;-55
2023/08/21 13:06:12;;;;;;;256.40;194.57;;;;;;;;;;5072879;28;20429;-54
2023/08/21 13:08:38;;;;;;;254.27;191.40;;;;;;;;;;5073221;28;20994;-51
2023/08/21 13:11:05;;;;;;;248.53;175.93;;;;;;;;;;5072988;28;20421;-55
2023/08/21 13:13:31;;;;;;;254.80;181.17;;;;;;;;;;5070988;28;20443;-54
2023/08/21 13:15:58;;;;;;;254.53;189.17;;;;;;;;;;5069671;28;20519;-53
2023/08/21 13:18:24;;;;;;;251.63;173.80;;;;;;;;;;5065028;28;20452;-54
2023/08/21 13:20:50;;;;;;;251.37;175.50;;;;;;;;;;5065836;28;20501;-54
2023/08/21 13:23:16;;;;;;;264.47;204.80;;;;;;;;;;5071499;28;20467;-54
2023/08/21 13:25:42;;;;;;;250.37;178.70;;;;;;;;;;5072567;28;20428;-51
2023/08/21 13:28:08;;;;;;;254.27;178.97;;;;;;;;;;5072382;28;20451;-52
2023/08/21 13:30:34;;;;;;;251.23;179.10;;;;;;;;;;5073548;28;21019;-51
2023/08/21 13:33:00;;;;;;;242.17;162.37;;;;;;;;;;5073477;28;20638;-53
2023/08/21 13:35:26;;;;;;;246.57;171.13;;;;;;;;;;5074294;28;20440;-52
2023/08/21 13:37:52;;;;;;;249.87;179.20;;;;;;;;;;5074308;28;20410;-51
2023/08/21 13:40:18;;;;;;;242.10;167.00;;;;;;;;;;5074219;28;20407;-52
2023/08/21 13:42:45;;;;;;;241.00;170.40;;;;;;;;;;5074130;28;20442;-52
2023/08/21 13:45:12;;;;;;;250.83;193.10;;;;;;;;;;5073348;28;20408;-52
2023/08/21 13:47:39;;;;;;;250.53;187.57;;;;;;;;;;5074166;28;20454;-51